Geddes, South Dakota
Current Conditions -  °F | °C
As of 4:01 PM on Friday 24 Oct 2014 (Local Time) from KMHE Reporting Station
Haze Haze  
Wind Chill: 78°   Ceiling: Unl
Heat Index: 78°   Visibility: 3mi
Dew Point: 36°   Wind: 6mph
Humidity: 22%   Direction: 320°NW
Pressure: 29.9"   Gusts: NA
Location:  43.25°N, 98.7°W
Report Text: KMHE 242101Z AUTO 32005KT 3SM HZ CLR 26/02 A2990 RMK AO2 T02560022
Loading
Personal Weather Stations






























Interactive Weather Map
Tropical Storm Tracking
New forecast layout! Learn more

10-Day Weather Forecast

Advertisements
Track Severe Weather on mobile